Terminal Aerodrome Forecast
Issued by NWS

Home | Current Version | Previous Version | Text Only | Print | Product List | Glossary On
Versions: 1 2 3 4 5 6 7 8 9 10 11 12 13 14 15 16
000
FTUS46 KEKA 171603 AAA
TAFCEC
TAF AMD
KCEC 171603Z 1716/1812 18008KT P6SM BKN100
     FM171900 17006KT P6SM VCSH OVC030
     FM172000 17010KT 6SM -RA SCT005 OVC010
     FM180400 15008KT P6SM -SHRA SCT015=

USA.gov is the U.S. government's official web portal to all federal, state and local government web resources and services.